sensor_id;sensor_type;location;lat;lon;timestamp;temperature;humidity
39067;DHT22;24821;51.988;6.020;2023-10-13T00:00:26;18.30;99.90
39067;DHT22;24821;51.988;6.020;2023-10-13T00:02:51;18.30;99.90
39067;DHT22;24821;51.988;6.020;2023-10-13T00:05:18;18.30;99.90
39067;DHT22;24821;51.988;6.020;2023-10-13T00:07:44;18.30;99.90
39067;DHT22;24821;51.988;6.020;2023-10-13T00:10:09;18.30;99.90
39067;DHT22;24821;51.988;6.020;2023-10-13T00:12:35;18.30;99.90
39067;DHT22;24821;51.988;6.020;2023-10-13T00:15:04;18.30;99.90
39067;DHT22;24821;51.988;6.020;2023-10-13T00:17:32;18.30;99.90
39067;DHT22;24821;51.988;6.020;2023-10-13T00:19:58;18.30;99.90
39067;DHT22;24821;51.988;6.020;2023-10-13T00:22:25;18.40;99.90
39067;DHT22;24821;51.988;6.020;2023-10-13T00:24:53;18.40;99.90
39067;DHT22;24821;51.988;6.020;2023-10-13T00:27:24;18.40;99.90
39067;DHT22;24821;51.988;6.020;2023-10-13T00:29:59;18.40;99.90
39067;DHT22;24821;51.988;6.020;2023-10-13T00:32:48;18.40;99.90
39067;DHT22;24821;51.988;6.020;2023-10-13T00:35:19;18.40;99.90
39067;DHT22;24821;51.988;6.020;2023-10-13T00:37:54;18.40;99.90
39067;DHT22;24821;51.988;6.020;2023-10-13T00:40:20;18.30;99.90
39067;DHT22;24821;51.988;6.020;2023-10-13T00:42:56;18.40;99.90
39067;DHT22;24821;51.988;6.020;2023-10-13T00:45:43;18.30;99.90
39067;DHT22;24821;51.988;6.020;2023-10-13T00:48:10;18.40;99.90
39067;DHT22;24821;51.988;6.020;2023-10-13T00:50:39;18.30;99.90
39067;DHT22;24821;51.988;6.020;2023-10-13T00:53:06;18.40;99.90
39067;DHT22;24821;51.988;6.020;2023-10-13T00:55:33;18.40;99.90
39067;DHT22;24821;51.988;6.020;2023-10-13T00:58:02;18.40;99.90
39067;DHT22;24821;51.988;6.020;2023-10-13T01:00:32;18.40;99.90
39067;DHT22;24821;51.988;6.020;2023-10-13T01:02:58;18.40;99.90
39067;DHT22;24821;51.988;6.020;2023-10-13T01:05:33;18.40;99.90
39067;DHT22;24821;51.988;6.020;2023-10-13T01:08:02;18.40;99.90
39067;DHT22;24821;51.988;6.020;2023-10-13T01:10:29;18.40;99.90
39067;DHT22;24821;51.988;6.020;2023-10-13T01:12:58;18.40;99.90
39067;DHT22;24821;51.988;6.020;2023-10-13T01:15:27;18.40;99.90
39067;DHT22;24821;51.988;6.020;2023-10-13T01:18:11;18.40;99.90
39067;DHT22;24821;51.988;6.020;2023-10-13T01:20:38;18.40;99.90
39067;DHT22;24821;51.988;6.020;2023-10-13T01:23:14;18.30;99.90
39067;DHT22;24821;51.988;6.020;2023-10-13T01:25:50;18.30;99.90
39067;DHT22;24821;51.988;6.020;2023-10-13T01:28:16;18.30;99.90
39067;DHT22;24821;51.988;6.020;2023-10-13T01:30:45;18.30;99.90
39067;DHT22;24821;51.988;6.020;2023-10-13T01:33:18;18.30;99.90
39067;DHT22;24821;51.988;6.020;2023-10-13T01:35:53;18.30;99.90
39067;DHT22;24821;51.988;6.020;2023-10-13T01:38:20;18.30;99.90
39067;DHT22;24821;51.988;6.020;2023-10-13T01:40:46;18.30;99.90
39067;DHT22;24821;51.988;6.020;2023-10-13T01:43:16;18.30;99.90
39067;DHT22;24821;51.988;6.020;2023-10-13T01:45:43;18.30;99.90
39067;DHT22;24821;51.988;6.020;2023-10-13T01:48:15;18.30;99.90
39067;DHT22;24821;51.988;6.020;2023-10-13T01:50:43;18.30;99.90
39067;DHT22;24821;51.988;6.020;2023-10-13T01:53:13;18.30;99.90
39067;DHT22;24821;51.988;6.020;2023-10-13T01:55:40;18.30;99.90
39067;DHT22;24821;51.988;6.020;2023-10-13T01:58:13;18.30;99.90
39067;DHT22;24821;51.988;6.020;2023-10-13T02:00:46;18.30;99.90
39067;DHT22;24821;51.988;6.020;2023-10-13T02:03:13;18.30;99.90
39067;DHT22;24821;51.988;6.020;2023-10-13T02:05:46;18.30;99.90
39067;DHT22;24821;51.988;6.020;2023-10-13T02:08:21;18.20;99.90
39067;DHT22;24821;51.988;6.020;2023-10-13T02:10:54;18.20;99.90
39067;DHT22;24821;51.988;6.020;2023-10-13T02:13:21;18.30;99.90
39067;DHT22;24821;51.988;6.020;2023-10-13T02:15:49;18.30;99.90
39067;DHT22;24821;51.988;6.020;2023-10-13T02:18:19;18.30;99.90
39067;DHT22;24821;51.988;6.020;2023-10-13T02:21:03;18.30;99.90
39067;DHT22;24821;51.988;6.020;2023-10-13T02:23:38;18.30;99.90
39067;DHT22;24821;51.988;6.020;2023-10-13T02:26:08;18.20;99.90
39067;DHT22;24821;51.988;6.020;2023-10-13T02:29:01;18.30;99.90
39067;DHT22;24821;51.988;6.020;2023-10-13T02:31:35;18.30;99.90
39067;DHT22;24821;51.988;6.020;2023-10-13T02:34:02;18.30;99.90
39067;DHT22;24821;51.988;6.020;2023-10-13T02:36:34;18.30;99.90
39067;DHT22;24821;51.988;6.020;2023-10-13T02:39:04;18.30;99.90
39067;DHT22;24821;51.988;6.020;2023-10-13T02:41:34;18.30;99.90
39067;DHT22;24821;51.988;6.020;2023-10-13T02:44:03;18.30;99.90
39067;DHT22;24821;51.988;6.020;2023-10-13T02:46:32;18.20;99.90
39067;DHT22;24821;51.988;6.020;2023-10-13T02:49:01;18.30;99.90
39067;DHT22;24821;51.988;6.020;2023-10-13T02:51:34;18.20;99.90
39067;DHT22;24821;51.988;6.020;2023-10-13T02:54:07;18.20;99.90
39067;DHT22;24821;51.988;6.020;2023-10-13T02:56:37;18.20;99.90
39067;DHT22;24821;51.988;6.020;2023-10-13T02:59:03;18.30;99.90
39067;DHT22;24821;51.988;6.020;2023-10-13T03:01:33;18.20;99.90
39067;DHT22;24821;51.988;6.020;2023-10-13T03:04:04;18.30;99.90
39067;DHT22;24821;51.988;6.020;2023-10-13T03:06:35;18.30;99.90
39067;DHT22;24821;51.988;6.020;2023-10-13T03:09:19;18.20;99.90
39067;DHT22;24821;51.988;6.020;2023-10-13T03:11:48;18.20;99.90
39067;DHT22;24821;51.988;6.020;2023-10-13T03:14:18;18.20;99.90
39067;DHT22;24821;51.988;6.020;2023-10-13T03:16:59;18.20;99.90
39067;DHT22;24821;51.988;6.020;2023-10-13T03:19:34;18.20;99.90
39067;DHT22;24821;51.988;6.020;2023-10-13T03:22:04;18.10;99.90
39067;DHT22;24821;51.988;6.020;2023-10-13T03:24:38;18.10;99.90
39067;DHT22;24821;51.988;6.020;2023-10-13T03:27:17;18.10;99.90
39067;DHT22;24821;51.988;6.020;2023-10-13T03:29:44;18.10;99.90
39067;DHT22;24821;51.988;6.020;2023-10-13T03:32:13;18.00;99.90
39067;DHT22;24821;51.988;6.020;2023-10-13T03:34:43;18.10;99.90
39067;DHT22;24821;51.988;6.020;2023-10-13T03:37:41;18.00;99.90
39067;DHT22;24821;51.988;6.020;2023-10-13T03:40:08;18.10;99.90
39067;DHT22;24821;51.988;6.020;2023-10-13T03:42:58;18.00;99.90
39067;DHT22;24821;51.988;6.020;2023-10-13T03:48:15;18.10;99.90
39067;DHT22;24821;51.988;6.020;2023-10-13T03:50:58;18.10;99.90
39067;DHT22;24821;51.988;6.020;2023-10-13T03:53:31;18.00;99.90
39067;DHT22;24821;51.988;6.020;2023-10-13T03:56:00;18.10;99.90
39067;DHT22;24821;51.988;6.020;2023-10-13T03:58:38;18.10;99.90
39067;DHT22;24821;51.988;6.020;2023-10-13T04:01:07;18.00;99.90
39067;DHT22;24821;51.988;6.020;2023-10-13T04:03:35;18.10;99.90
39067;DHT22;24821;51.988;6.020;2023-10-13T04:06:04;18.10;99.90
39067;DHT22;24821;51.988;6.020;2023-10-13T04:08:34;18.10;99.90
39067;DHT22;24821;51.988;6.020;2023-10-13T04:11:08;18.10;99.90
39067;DHT22;24821;51.988;6.020;2023-10-13T04:13:52;18.10;99.90
39067;DHT22;24821;51.988;6.020;2023-10-13T04:16:37;18.00;99.90
39067;DHT22;24821;51.988;6.020;2023-10-13T04:19:04;18.00;99.90
39067;DHT22;24821;51.988;6.020;2023-10-13T04:21:33;18.00;99.90
39067;DHT22;24821;51.988;6.020;2023-10-13T04:24:06;18.00;99.90
39067;DHT22;24821;51.988;6.020;2023-10-13T04:26:51;18.00;99.90
39067;DHT22;24821;51.988;6.020;2023-10-13T04:29:44;18.00;99.90
39067;DHT22;24821;51.988;6.020;2023-10-13T04:32:13;18.00;99.90
39067;DHT22;24821;51.988;6.020;2023-10-13T04:34:41;18.00;99.90
39067;DHT22;24821;51.988;6.020;2023-10-13T04:37:11;18.00;99.90
39067;DHT22;24821;51.988;6.020;2023-10-13T04:40:07;18.00;99.90
39067;DHT22;24821;51.988;6.020;2023-10-13T04:42:36;18.00;99.90
39067;DHT22;24821;51.988;6.020;2023-10-13T04:45:07;18.00;99.90
39067;DHT22;24821;51.988;6.020;2023-10-13T04:47:53;18.00;99.90
39067;DHT22;24821;51.988;6.020;2023-10-13T04:50:23;18.00;99.90
39067;DHT22;24821;51.988;6.020;2023-10-13T04:52:59;18.10;99.90
39067;DHT22;24821;51.988;6.020;2023-10-13T04:55:33;18.00;99.90
39067;DHT22;24821;51.988;6.020;2023-10-13T04:58:34;18.10;99.90
39067;DHT22;24821;51.988;6.020;2023-10-13T05:01:18;18.00;99.90
39067;DHT22;24821;51.988;6.020;2023-10-13T05:03:50;18.00;99.90
39067;DHT22;24821;51.988;6.020;2023-10-13T05:06:38;18.00;99.90
39067;DHT22;24821;51.988;6.020;2023-10-13T05:09:13;18.00;99.90
39067;DHT22;24821;51.988;6.020;2023-10-13T05:11:57;18.00;99.90
39067;DHT22;24821;51.988;6.020;2023-10-13T05:14:41;18.10;99.90
39067;DHT22;24821;51.988;6.020;2023-10-13T05:17:25;18.10;99.90
39067;DHT22;24821;51.988;6.020;2023-10-13T05:20:09;18.20;99.90
39067;DHT22;24821;51.988;6.020;2023-10-13T05:22:54;18.10;99.90
39067;DHT22;24821;51.988;6.020;2023-10-13T05:25:38;18.20;99.90
39067;DHT22;24821;51.988;6.020;2023-10-13T05:28:22;18.20;99.90
39067;DHT22;24821;51.988;6.020;2023-10-13T05:31:07;18.30;99.90
39067;DHT22;24821;51.988;6.020;2023-10-13T05:33:52;18.30;99.90
39067;DHT22;24821;51.988;6.020;2023-10-13T05:36:36;18.40;99.90
39067;DHT22;24821;51.988;6.020;2023-10-13T05:39:20;18.50;99.90
39067;DHT22;24821;51.988;6.020;2023-10-13T05:42:04;18.50;99.90
39067;DHT22;24821;51.988;6.020;2023-10-13T05:44:48;18.60;99.90
39067;DHT22;24821;51.988;6.020;2023-10-13T05:47:32;18.60;99.90
39067;DHT22;24821;51.988;6.020;2023-10-13T05:50:05;18.60;99.90
39067;DHT22;24821;51.988;6.020;2023-10-13T05:52:39;18.70;99.90
39067;DHT22;24821;51.988;6.020;2023-10-13T05:55:27;18.70;99.90
39067;DHT22;24821;51.988;6.020;2023-10-13T05:58:11;18.80;99.90
39067;DHT22;24821;51.988;6.020;2023-10-13T06:00:56;18.80;99.90
39067;DHT22;24821;51.988;6.020;2023-10-13T06:03:41;18.80;99.90
39067;DHT22;24821;51.988;6.020;2023-10-13T06:06:25;18.80;99.90
39067;DHT22;24821;51.988;6.020;2023-10-13T06:09:09;18.80;99.90
39067;DHT22;24821;51.988;6.020;2023-10-13T06:11:53;18.90;99.90
39067;DHT22;24821;51.988;6.020;2023-10-13T06:14:37;18.80;99.90
39067;DHT22;24821;51.988;6.020;2023-10-13T06:17:22;18.90;99.90
39067;DHT22;24821;51.988;6.020;2023-10-13T06:20:06;18.90;99.90
39067;DHT22;24821;51.988;6.020;2023-10-13T06:22:50;18.90;99.90
39067;DHT22;24821;51.988;6.020;2023-10-13T06:25:35;18.90;99.90
39067;DHT22;24821;51.988;6.020;2023-10-13T06:28:19;18.90;99.90
39067;DHT22;24821;51.988;6.020;2023-10-13T06:31:05;18.90;99.90
39067;DHT22;24821;51.988;6.020;2023-10-13T06:33:36;18.90;99.90
39067;DHT22;24821;51.988;6.020;2023-10-13T06:36:10;19.00;99.90
39067;DHT22;24821;51.988;6.020;2023-10-13T06:38:36;19.00;99.90
39067;DHT22;24821;51.988;6.020;2023-10-13T06:41:05;19.00;99.90
39067;DHT22;24821;51.988;6.020;2023-10-13T06:43:35;19.10;99.90
39067;DHT22;24821;51.988;6.020;2023-10-13T06:46:09;19.10;99.90
39067;DHT22;24821;51.988;6.020;2023-10-13T06:48:40;19.10;99.90
39067;DHT22;24821;51.988;6.020;2023-10-13T06:51:06;19.10;99.90
39067;DHT22;24821;51.988;6.020;2023-10-13T06:53:47;19.10;99.90
39067;DHT22;24821;51.988;6.020;2023-10-13T06:56:16;19.10;99.90
39067;DHT22;24821;51.988;6.020;2023-10-13T06:58:49;19.10;99.90
39067;DHT22;24821;51.988;6.020;2023-10-13T07:01:14;19.10;99.90
39067;DHT22;24821;51.988;6.020;2023-10-13T07:03:47;19.10;99.90
39067;DHT22;24821;51.988;6.020;2023-10-13T07:06:18;19.10;99.90
39067;DHT22;24821;51.988;6.020;2023-10-13T07:08:46;19.10;99.90
39067;DHT22;24821;51.988;6.020;2023-10-13T07:11:17;19.10;99.90
39067;DHT22;24821;51.988;6.020;2023-10-13T07:14:04;19.10;99.90
39067;DHT22;24821;51.988;6.020;2023-10-13T07:17:02;19.10;99.90
39067;DHT22;24821;51.988;6.020;2023-10-13T07:19:30;19.10;99.90
39067;DHT22;24821;51.988;6.020;2023-10-13T07:21:57;19.10;99.90
39067;DHT22;24821;51.988;6.020;2023-10-13T07:24:28;19.10;99.90
39067;DHT22;24821;51.988;6.020;2023-10-13T07:26:58;19.10;99.90
39067;DHT22;24821;51.988;6.020;2023-10-13T07:29:31;19.10;99.90
39067;DHT22;24821;51.988;6.020;2023-10-13T07:32:00;19.10;99.90
39067;DHT22;24821;51.988;6.020;2023-10-13T07:34:28;19.10;99.90
39067;DHT22;24821;51.988;6.020;2023-10-13T07:36:58;19.10;99.90
39067;DHT22;24821;51.988;6.020;2023-10-13T07:39:30;19.10;99.90
39067;DHT22;24821;51.988;6.020;2023-10-13T07:42:00;19.10;99.90
39067;DHT22;24821;51.988;6.020;2023-10-13T07:44:33;19.10;99.90
39067;DHT22;24821;51.988;6.020;2023-10-13T07:47:00;19.10;99.90
39067;DHT22;24821;51.988;6.020;2023-10-13T07:49:36;19.10;99.90
39067;DHT22;24821;51.988;6.020;2023-10-13T07:52:03;19.10;99.90
39067;DHT22;24821;51.988;6.020;2023-10-13T07:54:56;19.10;99.90
39067;DHT22;24821;51.988;6.020;2023-10-13T07:57:36;19.10;99.90
39067;DHT22;24821;51.988;6.020;2023-10-13T08:00:14;19.10;99.90
39067;DHT22;24821;51.988;6.020;2023-10-13T08:03:01;19.10;99.90
39067;DHT22;24821;51.988;6.020;2023-10-13T08:05:51;19.20;99.90
39067;DHT22;24821;51.988;6.020;2023-10-13T08:08:45;19.20;99.90
39067;DHT22;24821;51.988;6.020;2023-10-13T08:11:18;19.20;99.90
39067;DHT22;24821;51.988;6.020;2023-10-13T08:13:53;19.20;99.90
39067;DHT22;24821;51.988;6.020;2023-10-13T08:16:42;19.20;99.90
39067;DHT22;24821;51.988;6.020;2023-10-13T08:19:19;19.30;99.90
39067;DHT22;24821;51.988;6.020;2023-10-13T08:21:46;19.30;99.90
39067;DHT22;24821;51.988;6.020;2023-10-13T08:24:17;19.30;99.90
39067;DHT22;24821;51.988;6.020;2023-10-13T08:27:01;19.40;99.90
39067;DHT22;24821;51.988;6.020;2023-10-13T08:29:46;19.40;99.90
39067;DHT22;24821;51.988;6.020;2023-10-13T08:34:59;19.50;99.90
39067;DHT22;24821;51.988;6.020;2023-10-13T08:37:45;19.50;99.90
39067;DHT22;24821;51.988;6.020;2023-10-13T08:40:16;19.60;99.90
39067;DHT22;24821;51.988;6.020;2023-10-13T08:43:03;19.60;99.90
39067;DHT22;24821;51.988;6.020;2023-10-13T08:45:31;19.80;99.90
39067;DHT22;24821;51.988;6.020;2023-10-13T08:48:00;19.80;99.90
39067;DHT22;24821;51.988;6.020;2023-10-13T08:50:42;19.90;99.90
39067;DHT22;24821;51.988;6.020;2023-10-13T08:53:30;19.90;99.90
39067;DHT22;24821;51.988;6.020;2023-10-13T08:58:38;20.10;99.90
39067;DHT22;24821;51.988;6.020;2023-10-13T09:01:30;20.10;99.90
39067;DHT22;24821;51.988;6.020;2023-10-13T09:04:15;20.20;99.90
39067;DHT22;24821;51.988;6.020;2023-10-13T09:06:57;20.20;99.90
39067;DHT22;24821;51.988;6.020;2023-10-13T09:09:30;20.30;99.90
39067;DHT22;24821;51.988;6.020;2023-10-13T09:12:20;20.20;99.90
39067;DHT22;24821;51.988;6.020;2023-10-13T09:14:52;20.30;99.90
39067;DHT22;24821;51.988;6.020;2023-10-13T09:17:25;20.30;99.90
39067;DHT22;24821;51.988;6.020;2023-10-13T09:20:06;20.30;99.90
39067;DHT22;24821;51.988;6.020;2023-10-13T09:22:58;20.40;99.90
39067;DHT22;24821;51.988;6.020;2023-10-13T09:25:30;20.50;99.90
39067;DHT22;24821;51.988;6.020;2023-10-13T09:27:59;20.60;99.90
39067;DHT22;24821;51.988;6.020;2023-10-13T09:30:26;20.70;99.90
39067;DHT22;24821;51.988;6.020;2023-10-13T09:33:02;20.70;99.90
39067;DHT22;24821;51.988;6.020;2023-10-13T09:35:31;20.80;99.90
39067;DHT22;24821;51.988;6.020;2023-10-13T09:38:00;20.70;99.90
39067;DHT22;24821;51.988;6.020;2023-10-13T09:40:28;20.70;99.90
39067;DHT22;24821;51.988;6.020;2023-10-13T09:43:03;20.70;99.90
39067;DHT22;24821;51.988;6.020;2023-10-13T09:45:41;20.70;99.90
39067;DHT22;24821;51.988;6.020;2023-10-13T09:51:03;20.70;99.90
39067;DHT22;24821;51.988;6.020;2023-10-13T09:53:32;20.70;99.90
39067;DHT22;24821;51.988;6.020;2023-10-13T09:56:09;20.70;99.90
39067;DHT22;24821;51.988;6.020;2023-10-13T09:58:55;20.70;99.90
39067;DHT22;24821;51.988;6.020;2023-10-13T10:01:25;20.70;99.90
39067;DHT22;24821;51.988;6.020;2023-10-13T10:04:09;20.80;99.90
39067;DHT22;24821;51.988;6.020;2023-10-13T10:06:36;20.80;99.90
39067;DHT22;24821;51.988;6.020;2023-10-13T10:09:08;20.90;99.90
39067;DHT22;24821;51.988;6.020;2023-10-13T10:17:29;21.00;99.90
39067;DHT22;24821;51.988;6.020;2023-10-13T10:19:56;21.00;99.90
39067;DHT22;24821;51.988;6.020;2023-10-13T10:22:26;21.00;99.90
39067;DHT22;24821;51.988;6.020;2023-10-13T10:25:13;21.10;99.90
39067;DHT22;24821;51.988;6.020;2023-10-13T10:27:56;21.10;99.90
39067;DHT22;24821;51.988;6.020;2023-10-13T10:30:29;21.10;99.90
39067;DHT22;24821;51.988;6.020;2023-10-13T10:32:58;21.10;99.90
39067;DHT22;24821;51.988;6.020;2023-10-13T10:35:32;21.20;99.90
39067;DHT22;24821;51.988;6.020;2023-10-13T10:38:15;21.20;99.90
39067;DHT22;24821;51.988;6.020;2023-10-13T10:40:57;21.20;99.90
39067;DHT22;24821;51.988;6.020;2023-10-13T10:43:26;21.10;99.90
39067;DHT22;24821;51.988;6.020;2023-10-13T10:45:52;21.10;99.90
39067;DHT22;24821;51.988;6.020;2023-10-13T10:48:18;21.10;99.90
39067;DHT22;24821;51.988;6.020;2023-10-13T10:50:51;21.00;99.90
39067;DHT22;24821;51.988;6.020;2023-10-13T10:53:22;21.10;99.90
39067;DHT22;24821;51.988;6.020;2023-10-13T10:55:48;21.20;99.90
39067;DHT22;24821;51.988;6.020;2023-10-13T10:58:14;21.20;99.90
39067;DHT22;24821;51.988;6.020;2023-10-13T11:01:05;21.30;99.90
39067;DHT22;24821;51.988;6.020;2023-10-13T11:03:36;21.30;99.90
39067;DHT22;24821;51.988;6.020;2023-10-13T11:06:04;21.30;99.90
39067;DHT22;24821;51.988;6.020;2023-10-13T11:08:30;21.30;99.90
39067;DHT22;24821;51.988;6.020;2023-10-13T11:11:02;21.30;99.90
39067;DHT22;24821;51.988;6.020;2023-10-13T11:13:43;21.40;99.90
39067;DHT22;24821;51.988;6.020;2023-10-13T11:16:22;21.50;99.90
39067;DHT22;24821;51.988;6.020;2023-10-13T11:19:03;21.60;99.90
39067;DHT22;24821;51.988;6.020;2023-10-13T11:21:30;21.60;99.90
39067;DHT22;24821;51.988;6.020;2023-10-13T11:23:59;21.60;99.90
39067;DHT22;24821;51.988;6.020;2023-10-13T11:26:37;21.70;99.90
39067;DHT22;24821;51.988;6.020;2023-10-13T11:29:19;21.70;99.90
39067;DHT22;24821;51.988;6.020;2023-10-13T11:31:55;21.60;99.90
39067;DHT22;24821;51.988;6.020;2023-10-13T11:34:25;21.60;99.90
39067;DHT22;24821;51.988;6.020;2023-10-13T11:36:51;21.60;99.90
39067;DHT22;24821;51.988;6.020;2023-10-13T11:39:16;21.60;99.90
39067;DHT22;24821;51.988;6.020;2023-10-13T11:41:51;21.60;99.90
39067;DHT22;24821;51.988;6.020;2023-10-13T11:44:20;21.60;99.90
39067;DHT22;24821;51.988;6.020;2023-10-13T11:46:45;21.60;99.90
39067;DHT22;24821;51.988;6.020;2023-10-13T11:49:14;21.70;99.90
39067;DHT22;24821;51.988;6.020;2023-10-13T11:51:45;21.80;99.90
39067;DHT22;24821;51.988;6.020;2023-10-13T11:56:43;21.90;99.90
39067;DHT22;24821;51.988;6.020;2023-10-13T11:59:10;22.00;99.90
39067;DHT22;24821;51.988;6.020;2023-10-13T12:01:47;22.00;99.90
39067;DHT22;24821;51.988;6.020;2023-10-13T12:04:32;22.10;99.90
39067;DHT22;24821;51.988;6.020;2023-10-13T12:07:09;22.10;99.60
39067;DHT22;24821;51.988;6.020;2023-10-13T12:10:06;22.10;99.90
39067;DHT22;24821;51.988;6.020;2023-10-13T12:12:40;22.10;99.90
39067;DHT22;24821;51.988;6.020;2023-10-13T12:15:08;22.10;99.70
39067;DHT22;24821;51.988;6.020;2023-10-13T12:17:50;22.10;99.60
39067;DHT22;24821;51.988;6.020;2023-10-13T12:20:16;22.30;99.10
39067;DHT22;24821;51.988;6.020;2023-10-13T12:22:58;22.40;99.40
39067;DHT22;24821;51.988;6.020;2023-10-13T12:25:36;22.40;99.30
39067;DHT22;24821;51.988;6.020;2023-10-13T12:28:10;22.50;99.30
39067;DHT22;24821;51.988;6.020;2023-10-13T12:30:44;22.50;99.60
39067;DHT22;24821;51.988;6.020;2023-10-13T12:33:19;22.50;99.30
39067;DHT22;24821;51.988;6.020;2023-10-13T12:36:00;22.60;99.20
39067;DHT22;24821;51.988;6.020;2023-10-13T12:38:36;22.60;99.40
39067;DHT22;24821;51.988;6.020;2023-10-13T12:41:05;22.60;99.10
39067;DHT22;24821;51.988;6.020;2023-10-13T12:43:49;22.60;99.20
39067;DHT22;24821;51.988;6.020;2023-10-13T12:46:33;22.60;98.90
39067;DHT22;24821;51.988;6.020;2023-10-13T12:49:18;22.60;98.70
39067;DHT22;24821;51.988;6.020;2023-10-13T12:52:03;22.60;98.60
39067;DHT22;24821;51.988;6.020;2023-10-13T12:54:29;22.70;98.20
39067;DHT22;24821;51.988;6.020;2023-10-13T12:57:01;22.70;98.30
39067;DHT22;24821;51.988;6.020;2023-10-13T12:59:27;22.70;98.50
39067;DHT22;24821;51.988;6.020;2023-10-13T13:01:53;22.60;98.50
39067;DHT22;24821;51.988;6.020;2023-10-13T13:04:19;22.60;98.40
39067;DHT22;24821;51.988;6.020;2023-10-13T13:06:51;22.60;98.40
39067;DHT22;24821;51.988;6.020;2023-10-13T13:09:19;22.60;98.60
39067;DHT22;24821;51.988;6.020;2023-10-13T13:11:54;22.70;98.50
39067;DHT22;24821;51.988;6.020;2023-10-13T13:14:23;22.70;98.50
39067;DHT22;24821;51.988;6.020;2023-10-13T13:16:55;22.70;97.90
39067;DHT22;24821;51.988;6.020;2023-10-13T13:19:33;22.70;98.10
39067;DHT22;24821;51.988;6.020;2023-10-13T13:22:02;22.80;98.30
39067;DHT22;24821;51.988;6.020;2023-10-13T13:24:29;22.70;98.50
39067;DHT22;24821;51.988;6.020;2023-10-13T13:26:56;22.70;98.20
39067;DHT22;24821;51.988;6.020;2023-10-13T13:29:22;22.70;98.50
39067;DHT22;24821;51.988;6.020;2023-10-13T13:31:47;22.70;98.20
39067;DHT22;24821;51.988;6.020;2023-10-13T13:34:13;22.80;98.30
39067;DHT22;24821;51.988;6.020;2023-10-13T13:36:39;22.80;98.30
39067;DHT22;24821;51.988;6.020;2023-10-13T13:39:12;22.80;98.50
39067;DHT22;24821;51.988;6.020;2023-10-13T13:41:43;22.80;98.10
39067;DHT22;24821;51.988;6.020;2023-10-13T13:44:09;22.70;98.10
39067;DHT22;24821;51.988;6.020;2023-10-13T13:46:40;22.70;98.10
39067;DHT22;24821;51.988;6.020;2023-10-13T13:49:07;22.70;98.20
39067;DHT22;24821;51.988;6.020;2023-10-13T13:51:33;22.70;98.30
39067;DHT22;24821;51.988;6.020;2023-10-13T13:54:03;22.70;98.50
39067;DHT22;24821;51.988;6.020;2023-10-13T13:56:32;22.70;98.60
39067;DHT22;24821;51.988;6.020;2023-10-13T13:59:03;22.60;98.50
39067;DHT22;24821;51.988;6.020;2023-10-13T14:01:34;22.60;98.40
39067;DHT22;24821;51.988;6.020;2023-10-13T14:04:02;22.60;98.40
39067;DHT22;24821;51.988;6.020;2023-10-13T14:06:29;22.50;98.80
39067;DHT22;24821;51.988;6.020;2023-10-13T14:08:56;22.50;98.40
39067;DHT22;24821;51.988;6.020;2023-10-13T14:11:40;22.50;98.20
39067;DHT22;24821;51.988;6.020;2023-10-13T14:14:11;22.60;98.50
39067;DHT22;24821;51.988;6.020;2023-10-13T14:16:46;22.60;98.60
39067;DHT22;24821;51.988;6.020;2023-10-13T14:19:13;22.60;98.10
39067;DHT22;24821;51.988;6.020;2023-10-13T14:21:59;22.60;98.40
39067;DHT22;24821;51.988;6.020;2023-10-13T14:24:25;22.60;98.50
39067;DHT22;24821;51.988;6.020;2023-10-13T14:26:58;22.50;98.50
39067;DHT22;24821;51.988;6.020;2023-10-13T14:29:33;22.50;98.50
39067;DHT22;24821;51.988;6.020;2023-10-13T14:31:58;22.40;98.60
39067;DHT22;24821;51.988;6.020;2023-10-13T14:34:24;22.40;99.00
39067;DHT22;24821;51.988;6.020;2023-10-13T14:36:51;22.40;99.10
39067;DHT22;24821;51.988;6.020;2023-10-13T14:39:20;22.30;99.30
39067;DHT22;24821;51.988;6.020;2023-10-13T14:41:46;22.20;99.80
39067;DHT22;24821;51.988;6.020;2023-10-13T14:44:13;22.10;99.40
39067;DHT22;24821;51.988;6.020;2023-10-13T14:46:39;22.10;99.60
39067;DHT22;24821;51.988;6.020;2023-10-13T14:49:05;22.10;99.60
39067;DHT22;24821;51.988;6.020;2023-10-13T14:51:31;22.10;99.90
39067;DHT22;24821;51.988;6.020;2023-10-13T14:53:58;22.00;99.90
39067;DHT22;24821;51.988;6.020;2023-10-13T14:56:25;21.90;99.90
39067;DHT22;24821;51.988;6.020;2023-10-13T14:58:52;21.90;99.90
39067;DHT22;24821;51.988;6.020;2023-10-13T15:01:20;21.80;99.90
39067;DHT22;24821;51.988;6.020;2023-10-13T15:03:51;21.80;99.90
39067;DHT22;24821;51.988;6.020;2023-10-13T15:06:24;21.80;99.90
39067;DHT22;24821;51.988;6.020;2023-10-13T15:08:52;21.70;99.90
39067;DHT22;24821;51.988;6.020;2023-10-13T15:11:20;21.70;99.90
39067;DHT22;24821;51.988;6.020;2023-10-13T15:13:46;21.60;99.90
39067;DHT22;24821;51.988;6.020;2023-10-13T15:16:18;21.60;99.90
39067;DHT22;24821;51.988;6.020;2023-10-13T15:18:48;21.60;99.90
39067;DHT22;24821;51.988;6.020;2023-10-13T15:23:52;21.60;99.90
39067;DHT22;24821;51.988;6.020;2023-10-13T15:26:18;21.50;99.90
39067;DHT22;24821;51.988;6.020;2023-10-13T15:28:46;21.50;99.90
39067;DHT22;24821;51.988;6.020;2023-10-13T15:31:18;21.40;99.90
39067;DHT22;24821;51.988;6.020;2023-10-13T15:33:58;21.40;99.90
39067;DHT22;24821;51.988;6.020;2023-10-13T15:36:24;21.30;99.90
39067;DHT22;24821;51.988;6.020;2023-10-13T15:38:50;21.30;99.90
39067;DHT22;24821;51.988;6.020;2023-10-13T15:41:26;21.20;99.90
39067;DHT22;24821;51.988;6.020;2023-10-13T15:43:52;21.10;99.90
39067;DHT22;24821;51.988;6.020;2023-10-13T15:46:20;21.10;99.90
39067;DHT22;24821;51.988;6.020;2023-10-13T15:48:50;21.00;99.90
39067;DHT22;24821;51.988;6.020;2023-10-13T15:51:15;20.90;99.90
39067;DHT22;24821;51.988;6.020;2023-10-13T15:53:42;20.90;99.90
39067;DHT22;24821;51.988;6.020;2023-10-13T15:56:09;20.80;99.90
39067;DHT22;24821;51.988;6.020;2023-10-13T15:58:41;20.80;99.90
39067;DHT22;24821;51.988;6.020;2023-10-13T16:01:11;20.80;99.90
39067;DHT22;24821;51.988;6.020;2023-10-13T16:03:39;20.70;99.90
39067;DHT22;24821;51.988;6.020;2023-10-13T16:06:06;20.70;99.90
39067;DHT22;24821;51.988;6.020;2023-10-13T16:08:38;20.70;99.90
39067;DHT22;24821;51.988;6.020;2023-10-13T16:11:10;20.70;99.90
39067;DHT22;24821;51.988;6.020;2023-10-13T16:13:42;20.70;99.90
39067;DHT22;24821;51.988;6.020;2023-10-13T16:16:18;20.60;99.90
39067;DHT22;24821;51.988;6.020;2023-10-13T16:18:44;20.60;99.90
39067;DHT22;24821;51.988;6.020;2023-10-13T16:21:11;20.60;99.90
39067;DHT22;24821;51.988;6.020;2023-10-13T16:23:41;20.60;99.90
39067;DHT22;24821;51.988;6.020;2023-10-13T16:26:07;20.60;99.90
39067;DHT22;24821;51.988;6.020;2023-10-13T16:28:35;20.60;99.90
39067;DHT22;24821;51.988;6.020;2023-10-13T16:31:02;20.60;99.90